createdAt,value
2019-01-29T00:01:08.341Z,9.20
2019-01-29T00:04:07.158Z,8.43
2019-01-29T00:06:53.781Z,7.35
2019-01-29T00:09:35.890Z,6.92
2019-01-29T00:12:18.925Z,7.70
2019-01-29T00:15:01.517Z,7.80
2019-01-29T00:17:51.659Z,7.60
2019-01-29T00:20:30.895Z,6.90
2019-01-29T00:23:10.684Z,7.85
2019-01-29T00:25:47.844Z,7.92
2019-01-29T00:28:25.956Z,8.85
2019-01-29T00:31:01.910Z,7.55
2019-01-29T00:33:42.768Z,8.23
2019-01-29T00:36:20.075Z,9.10
2019-01-29T00:38:53.692Z,7.62
2019-01-29T00:41:54.231Z,6.90
2019-01-29T00:44:28.773Z,7.15
2019-01-29T00:47:15.946Z,6.37
2019-01-29T00:49:55.842Z,8.10
2019-01-29T00:52:42.052Z,8.00
2019-01-29T00:55:17.738Z,7.83
2019-01-29T00:57:55.620Z,7.67
2019-01-29T01:00:28.937Z,7.65
2019-01-29T01:03:07.294Z,8.00
2019-01-29T01:05:53.176Z,8.05
2019-01-29T01:08:31.857Z,8.73
2019-01-29T01:11:19.295Z,8.00
2019-01-29T01:13:58.185Z,8.43
2019-01-29T01:16:33.680Z,6.93
2019-01-29T01:19:10.496Z,8.80
2019-01-29T01:21:43.905Z,7.60
2019-01-29T01:24:18.467Z,9.00
2019-01-29T01:26:54.232Z,7.35
2019-01-29T01:29:27.867Z,7.90
2019-01-29T01:32:00.757Z,9.03
2019-01-29T01:34:34.415Z,8.13
2019-01-29T01:37:13.330Z,8.08
2019-01-29T01:39:47.033Z,8.18
2019-01-29T01:42:22.473Z,7.95
2019-01-29T01:44:56.092Z,8.58
2019-01-29T01:47:29.527Z,8.00
2019-01-29T01:50:03.518Z,9.08
2019-01-29T01:52:36.882Z,8.75
2019-01-29T01:55:12.202Z,8.68
2019-01-29T01:57:48.812Z,9.15
2019-01-29T02:00:23.170Z,9.73
2019-01-29T02:03:09.015Z,9.75
2019-01-29T02:05:44.490Z,10.48
2019-01-29T02:08:17.944Z,9.70
2019-01-29T02:10:56.641Z,8.93
2019-01-29T02:13:34.591Z,9.90
2019-01-29T02:16:12.989Z,12.15
2019-01-29T02:18:57.922Z,9.78
2019-01-29T02:21:39.690Z,10.55
2019-01-29T02:24:16.148Z,9.28
2019-01-29T02:26:55.677Z,10.13
2019-01-29T02:29:33.788Z,13.08
2019-01-29T02:32:12.030Z,9.43
2019-01-29T02:35:02.259Z,10.30
2019-01-29T02:37:42.823Z,10.08
2019-01-29T02:40:21.438Z,10.38
2019-01-29T02:43:22.787Z,10.32
2019-01-29T02:45:59.662Z,11.18
2019-01-29T02:48:32.961Z,10.50
2019-01-29T02:51:06.609Z,12.55
2019-01-29T02:54:21.829Z,10.50
2019-01-29T02:57:21.040Z,10.45
2019-01-29T03:00:02.442Z,11.18
2019-01-29T03:02:42.416Z,10.40
2019-01-29T03:05:25.117Z,11.00
2019-01-29T03:08:01.766Z,11.28
2019-01-29T03:10:59.327Z,10.05
2019-01-29T03:13:37.162Z,10.28
2019-01-29T03:16:15.425Z,10.13
2019-01-29T03:18:54.111Z,9.70
2019-01-29T03:21:38.870Z,10.95
2019-01-29T03:24:15.453Z,9.58
2019-01-29T03:26:52.009Z,9.15
2019-01-29T03:29:31.406Z,8.98
2019-01-29T03:32:09.498Z,9.13
2019-01-29T03:34:47.348Z,8.95
2019-01-29T03:37:36.268Z,9.43
2019-01-29T03:40:13.061Z,8.53
2019-01-29T03:42:49.678Z,9.78
2019-01-29T03:45:26.541Z,8.85
2019-01-29T03:48:05.263Z,8.08
2019-01-29T03:50:46.006Z,9.45
2019-01-29T03:53:21.577Z,8.50
2019-01-29T03:55:56.196Z,9.90
2019-01-29T03:58:37.188Z,8.95
2019-01-29T04:01:42.039Z,9.75
2019-01-29T04:04:21.184Z,8.85
2019-01-29T04:06:58.967Z,9.45
2019-01-29T04:09:34.730Z,8.90
2019-01-29T04:12:09.777Z,8.18
2019-01-29T04:14:46.372Z,8.20
2019-01-29T04:17:26.567Z,8.20
2019-01-29T04:20:08.685Z,10.95
2019-01-29T04:22:45.778Z,8.63
2019-01-29T04:25:21.306Z,8.55
2019-01-29T04:27:58.963Z,7.87
2019-01-29T04:30:37.355Z,8.70
2019-01-29T04:33:19.361Z,9.03
2019-01-29T04:36:02.479Z,8.00
2019-01-29T04:38:44.920Z,8.75
2019-01-29T04:41:46.713Z,8.85
2019-01-29T04:44:27.104Z,8.80
2019-01-29T04:47:05.543Z,10.68
2019-01-29T04:50:08.596Z,9.40
2019-01-29T04:53:02.601Z,9.40
2019-01-29T04:55:37.859Z,11.10
2019-01-29T04:58:12.154Z,9.05
2019-01-29T05:00:46.544Z,10.63
2019-01-29T05:03:22.255Z,9.65
2019-01-29T05:05:55.564Z,10.20
2019-01-29T05:08:28.869Z,8.78
2019-01-29T05:11:03.155Z,10.25
2019-01-29T05:13:36.519Z,9.73
2019-01-29T05:16:09.877Z,11.05
2019-01-29T05:18:44.102Z,9.48
2019-01-29T05:21:17.653Z,8.78
2019-01-29T05:23:50.981Z,8.85
2019-01-29T05:26:23.966Z,10.05
2019-01-29T05:28:56.682Z,8.98
2019-01-29T05:31:29.719Z,9.20
2019-01-29T05:34:03.418Z,7.97
2019-01-29T05:36:36.569Z,8.63
2019-01-29T05:39:11.402Z,9.20
2019-01-29T05:41:44.590Z,9.08
2019-01-29T05:44:17.579Z,9.83
2019-01-29T05:46:50.538Z,9.65
2019-01-29T05:49:23.956Z,11.08
2019-01-29T05:51:57.122Z,11.08
2019-01-29T05:54:31.783Z,10.45
2019-01-29T05:57:06.082Z,12.20
2019-01-29T05:59:39.588Z,11.57
2019-01-29T06:02:15.342Z,10.70
2019-01-29T06:04:48.641Z,12.05
2019-01-29T06:07:22.079Z,13.28
2019-01-29T06:09:58.704Z,13.40
2019-01-29T06:12:31.900Z,12.15
2019-01-29T06:15:06.405Z,13.18
2019-01-29T06:17:42.256Z,14.25
2019-01-29T06:20:18.639Z,14.73
2019-01-29T06:22:51.779Z,14.13
2019-01-29T06:25:25.221Z,14.23
2019-01-29T06:27:59.557Z,18.85
2019-01-29T06:30:40.302Z,15.68
2019-01-29T06:33:12.901Z,17.07
2019-01-29T06:35:46.304Z,17.27
2019-01-29T06:38:20.091Z,17.48
2019-01-29T06:40:53.502Z,17.62
2019-01-29T06:43:27.391Z,18.25
2019-01-29T06:46:01.404Z,18.45
2019-01-29T06:48:34.894Z,17.45
2019-01-29T06:51:08.304Z,18.92
2019-01-29T06:53:41.449Z,18.00
2019-01-29T06:56:15.141Z,17.92
2019-01-29T06:58:51.751Z,19.15
2019-01-29T07:01:27.545Z,19.85
2019-01-29T07:04:01.118Z,21.17
2019-01-29T07:06:34.939Z,18.60
2019-01-29T07:09:08.534Z,18.87
2019-01-29T07:11:41.513Z,20.25
2019-01-29T07:14:14.118Z,22.35
2019-01-29T07:17:01.929Z,22.30
2019-01-29T07:19:43.556Z,22.87
2019-01-29T07:22:17.004Z,20.40
2019-01-29T07:24:50.539Z,20.82
2019-01-29T07:27:24.334Z,22.87
2019-01-29T07:29:57.625Z,20.37
2019-01-29T07:32:31.028Z,21.00
2019-01-29T07:35:06.878Z,22.55
2019-01-29T07:37:39.983Z,21.10
2019-01-29T07:40:12.811Z,20.60
2019-01-29T07:42:45.437Z,20.40
2019-01-29T07:45:18.754Z,20.27
2019-01-29T07:47:52.110Z,23.07
2019-01-29T07:50:25.532Z,22.22
2019-01-29T07:52:59.111Z,22.00
2019-01-29T07:55:33.011Z,19.17
2019-01-29T07:58:06.017Z,21.35
2019-01-29T08:00:38.701Z,21.17
2019-01-29T08:03:12.112Z,22.90
2019-01-29T08:05:45.449Z,22.82
2019-01-29T08:08:19.908Z,23.42
2019-01-29T08:10:52.918Z,22.90
2019-01-29T08:13:26.297Z,20.80
2019-01-29T08:15:58.962Z,23.07
2019-01-29T08:18:32.790Z,23.55
2019-01-29T08:21:05.564Z,21.85
2019-01-29T08:23:39.063Z,22.60
2019-01-29T08:26:12.048Z,22.58
2019-01-29T08:28:45.279Z,23.10
2019-01-29T08:31:18.644Z,23.25
2019-01-29T08:33:52.038Z,26.45
2019-01-29T08:36:24.795Z,28.47
2019-01-29T08:38:58.321Z,26.55
2019-01-29T08:41:32.220Z,27.42
2019-01-29T08:44:05.732Z,24.57
2019-01-29T08:46:38.782Z,27.55
2019-01-29T08:49:13.836Z,28.20
2019-01-29T08:51:46.860Z,25.72
2019-01-29T08:54:19.536Z,25.50
2019-01-29T08:56:53.353Z,24.05
2019-01-29T08:59:26.503Z,23.98
2019-01-29T09:02:00.707Z,24.10
2019-01-29T09:04:34.249Z,23.27
2019-01-29T09:07:06.914Z,23.83
2019-01-29T09:09:39.689Z,24.67
2019-01-29T09:12:12.202Z,26.37
2019-01-29T09:14:44.783Z,24.60
2019-01-29T09:17:20.338Z,24.85
2019-01-29T09:19:53.283Z,23.80
2019-01-29T09:22:25.958Z,26.55
2019-01-29T09:24:59.359Z,22.77
2019-01-29T09:27:32.643Z,21.27
2019-01-29T09:30:06.653Z,24.10
2019-01-29T09:32:40.410Z,23.83
2019-01-29T09:35:14.501Z,21.97
2019-01-29T09:37:46.685Z,21.97
2019-01-29T09:40:21.704Z,22.90
2019-01-29T09:42:55.264Z,22.02
2019-01-29T09:45:28.691Z,22.70
2019-01-29T09:48:01.968Z,23.15
2019-01-29T09:50:35.105Z,25.30
2019-01-29T09:53:08.163Z,23.67
2019-01-29T09:55:42.042Z,24.98
2019-01-29T09:58:15.372Z,26.45
2019-01-29T10:00:49.511Z,23.18
2019-01-29T10:03:22.889Z,24.23
2019-01-29T10:06:03.412Z,22.98
2019-01-29T10:08:38.373Z,23.15
2019-01-29T10:11:11.872Z,23.90
2019-01-29T10:13:45.683Z,21.97
2019-01-29T10:16:18.278Z,22.13
2019-01-29T10:18:53.271Z,24.05
2019-01-29T10:21:26.354Z,24.23
2019-01-29T10:23:59.400Z,25.17
2019-01-29T10:26:32.771Z,25.48
2019-01-29T10:29:06.159Z,25.08
2019-01-29T10:31:39.666Z,24.75
2019-01-29T10:34:13.504Z,25.17
2019-01-29T10:36:46.521Z,24.30
2019-01-29T10:39:20.687Z,23.35
2019-01-29T10:41:58.536Z,26.57
2019-01-29T10:44:33.748Z,26.07
2019-01-29T10:47:08.376Z,25.80
2019-01-29T10:49:44.636Z,27.87
2019-01-29T10:52:18.007Z,26.50
2019-01-29T10:54:53.971Z,26.82
2019-01-29T10:57:30.844Z,27.87
2019-01-29T11:00:09.120Z,27.52
2019-01-29T11:02:44.422Z,27.30
2019-01-29T11:05:20.574Z,26.12
2019-01-29T11:07:56.934Z,28.65
2019-01-29T11:10:30.811Z,28.50
2019-01-29T11:13:04.552Z,28.47
2019-01-29T11:15:39.283Z,27.65
2019-01-29T11:18:16.123Z,27.65
2019-01-29T11:20:49.525Z,25.50
2019-01-29T11:23:22.511Z,29.20
2019-01-29T11:25:56.274Z,28.65
2019-01-29T11:28:29.997Z,27.05
2019-01-29T11:31:06.641Z,27.30
2019-01-29T11:33:39.384Z,24.57
2019-01-29T11:36:12.390Z,23.55
2019-01-29T11:38:49.474Z,26.20
2019-01-29T11:41:24.285Z,28.52
2019-01-29T11:44:02.643Z,27.70
2019-01-29T11:46:41.921Z,24.10
2019-01-29T11:49:23.455Z,24.47
2019-01-29T11:52:00.012Z,25.35
2019-01-29T11:54:39.607Z,24.23
2019-01-29T11:57:20.391Z,24.67
2019-01-29T11:59:58.005Z,22.17
2019-01-29T12:02:39.349Z,21.85
2019-01-29T12:05:20.152Z,22.65
2019-01-29T12:07:57.558Z,23.30
2019-01-29T12:10:34.576Z,23.62
2019-01-29T12:13:12.084Z,21.55
2019-01-29T12:15:48.458Z,19.65
2019-01-29T12:18:23.865Z,21.70
2019-01-29T12:20:57.039Z,19.60
2019-01-29T12:23:36.509Z,16.02
2019-01-29T12:26:16.964Z,16.95
2019-01-29T12:29:07.145Z,15.15
2019-01-29T12:32:07.127Z,17.20
2019-01-29T12:34:48.033Z,16.80
2019-01-29T12:37:27.451Z,17.82
2019-01-29T12:40:05.659Z,17.42
2019-01-29T12:42:40.173Z,16.95
2019-01-29T12:45:14.802Z,19.20
2019-01-29T12:47:48.565Z,17.02
2019-01-29T12:50:25.952Z,16.27
2019-01-29T12:53:08.420Z,14.00
2019-01-29T12:55:48.843Z,13.83
2019-01-29T12:58:25.101Z,13.53
2019-01-29T13:01:02.091Z,13.43
2019-01-29T13:03:37.435Z,12.68
2019-01-29T13:06:26.089Z,14.60
2019-01-29T13:09:11.329Z,13.90
2019-01-29T13:11:52.444Z,14.10
2019-01-29T13:14:35.197Z,13.80
2019-01-29T13:17:13.790Z,15.00
2019-01-29T13:19:54.404Z,16.75
2019-01-29T13:22:44.132Z,17.90
2019-01-29T13:25:17.166Z,15.83
2019-01-29T13:28:07.776Z,15.43
2019-01-29T13:30:44.556Z,17.12
2019-01-29T13:33:19.096Z,15.32
2019-01-29T13:35:54.138Z,15.80
2019-01-29T13:38:27.292Z,13.30
2019-01-29T13:41:02.436Z,14.90
2019-01-29T13:43:36.449Z,15.10
2019-01-29T13:46:10.622Z,14.65
2019-01-29T13:48:44.400Z,14.45
2019-01-29T13:51:17.047Z,13.70
2019-01-29T13:53:50.018Z,15.23
2019-01-29T13:56:23.395Z,14.18
2019-01-29T13:58:56.413Z,14.85
2019-01-29T14:01:29.456Z,13.08
2019-01-29T14:04:06.284Z,12.70
2019-01-29T14:06:37.317Z,11.33
2019-01-29T14:09:10.995Z,12.05
2019-01-29T14:12:04.794Z,12.53
2019-01-29T14:14:38.345Z,12.90
2019-01-29T14:17:14.141Z,10.60
2019-01-29T14:19:47.568Z,12.40
2019-01-29T14:22:21.125Z,9.93
2019-01-29T14:24:56.995Z,11.18
2019-01-29T14:27:30.849Z,9.63
2019-01-29T14:30:05.487Z,11.45
2019-01-29T14:32:40.842Z,11.73
2019-01-29T14:35:16.753Z,11.22
2019-01-29T14:38:46.312Z,11.12
2019-01-29T14:41:21.685Z,9.65
2019-01-29T14:43:56.974Z,10.53
2019-01-29T14:46:30.058Z,9.98
2019-01-29T14:49:03.184Z,9.28
2019-01-29T14:51:36.609Z,9.85
2019-01-29T14:54:09.408Z,9.28
2019-01-29T14:56:42.579Z,8.80
2019-01-29T14:59:17.089Z,9.70
2019-01-29T15:01:50.575Z,8.53
2019-01-29T15:04:23.875Z,8.80
2019-01-29T15:06:59.940Z,9.13
2019-01-29T15:09:32.508Z,10.65
2019-01-29T15:12:04.863Z,8.80
2019-01-29T15:14:37.224Z,22.22
2019-01-29T15:17:35.770Z,8.30
2019-01-29T15:20:10.197Z,9.13
2019-01-29T15:22:44.312Z,9.30
2019-01-29T15:25:18.249Z,8.83
2019-01-29T15:27:50.659Z,9.50
2019-01-29T15:30:25.297Z,9.55
2019-01-29T15:32:59.012Z,10.32
2019-01-29T15:35:32.219Z,9.68
2019-01-29T15:38:06.113Z,10.90
2019-01-29T15:40:39.975Z,9.45
2019-01-29T15:43:12.910Z,10.00
2019-01-29T15:45:46.498Z,10.95
2019-01-29T15:48:19.578Z,9.73
2019-01-29T15:50:53.054Z,10.53
2019-01-29T15:53:25.562Z,10.53
2019-01-29T15:55:59.061Z,10.58
2019-01-29T15:58:31.319Z,11.40
2019-01-29T16:01:04.738Z,9.28
